Time;durP1;ratioP1;P1;durP2;ratioP2;P2;SDS_P1;SDS_P2;PMS_P1;PMS_P2;Temp;Humidity;BMP_temperature;BMP_pressure;BME280_temperature;BME280_humidity;BME280_pressure;Samples;Min_cycle;Max_cycle;Signal;HPM_P1;HPM_P2
2022/01/03 00:00:08;;;;;;;20.23;19.27;;;;;;;;;;4956709;29;20521;-87
2022/01/03 00:02:36;;;;;;;20.50;19.30;;;;;;;;;;4957803;29;20432;-86
2022/01/03 00:05:03;;;;;;;22.03;20.37;;;;;;;;;;4957212;29;20441;-87
2022/01/03 00:07:32;;;;;;;21.00;19.60;;;;;;;;;;4961595;29;20450;-87
2022/01/03 00:10:00;;;;;;;20.20;19.00;;;;;;;;;;4960439;29;20412;-87
2022/01/03 00:12:29;;;;;;;20.67;19.17;;;;;;;;;;4960468;29;20413;-87
2022/01/03 00:14:58;;;;;;;20.73;19.00;;;;;;;;;;4962171;29;20520;-88
2022/01/03 00:17:25;;;;;;;20.07;18.57;;;;;;;;;;4961933;29;20911;-86
2022/01/03 00:19:54;;;;;;;20.40;19.00;;;;;;;;;;4965479;29;20440;-87
2022/01/03 00:22:22;;;;;;;20.13;19.00;;;;;;;;;;4963994;29;20442;-85
2022/01/03 00:24:59;;;;;;;19.90;18.70;;;;;;;;;;4960570;29;20459;-87
2022/01/03 00:27:38;;;;;;;19.42;18.33;;;;;;;;;;4960626;29;20474;-85
2022/01/03 00:30:14;;;;;;;18.57;17.47;;;;;;;;;;4963050;28;20266;-86
2022/01/03 00:32:44;;;;;;;18.80;17.70;;;;;;;;;;4961945;29;20409;-86
2022/01/03 00:35:18;;;;;;;19.80;18.70;;;;;;;;;;4963575;29;20464;-86
2022/01/03 00:37:47;;;;;;;19.57;18.10;;;;;;;;;;4963133;29;20450;-86
2022/01/03 00:40:17;;;;;;;19.73;18.33;;;;;;;;;;4964139;29;20801;-86
2022/01/03 00:42:45;;;;;;;20.93;19.03;;;;;;;;;;4963692;29;20486;-86
2022/01/03 00:45:15;;;;;;;19.80;18.40;;;;;;;;;;4963684;29;20429;-86
2022/01/03 00:47:44;;;;;;;33.67;19.37;;;;;;;;;;4965781;28;20426;-86
2022/01/03 00:50:15;;;;;;;20.17;18.20;;;;;;;;;;4968369;29;20409;-86
2022/01/03 00:52:43;;;;;;;19.73;17.93;;;;;;;;;;4966051;29;20464;-85
2022/01/03 00:55:11;;;;;;;20.03;18.80;;;;;;;;;;4967681;29;20504;-86
2022/01/03 00:57:49;;;;;;;18.93;17.50;;;;;;;;;;4964524;29;20443;-86
2022/01/03 01:00:19;;;;;;;19.07;17.73;;;;;;;;;;4963316;29;20458;-86
2022/01/03 01:02:51;;;;;;;21.77;20.00;;;;;;;;;;4963321;29;21015;-85
2022/01/03 01:05:19;;;;;;;20.03;18.30;;;;;;;;;;4962478;29;20464;-87
2022/01/03 01:07:50;;;;;;;19.40;18.20;;;;;;;;;;4962981;29;20521;-86
2022/01/03 01:10:18;;;;;;;19.40;18.03;;;;;;;;;;4960774;29;20459;-86
2022/01/03 01:12:46;;;;;;;18.80;17.63;;;;;;;;;;4964459;29;20416;-86
2022/01/03 01:15:15;;;;;;;21.70;18.63;;;;;;;;;;4963319;29;20503;-87
2022/01/03 01:17:51;;;;;;;20.03;18.20;;;;;;;;;;4963530;29;20449;-87
2022/01/03 01:20:20;;;;;;;19.30;17.90;;;;;;;;;;4963091;29;20434;-87
2022/01/03 01:22:48;;;;;;;19.20;17.90;;;;;;;;;;4965203;29;20485;-86
2022/01/03 01:28:11;;;;;;;19.70;18.30;;;;;;;;;;4962403;29;20500;-86
2022/01/03 01:30:39;;;;;;;19.83;18.53;;;;;;;;;;4961603;29;20506;-87
2022/01/03 01:33:11;;;;;;;20.90;18.90;;;;;;;;;;4963001;29;20429;-87
2022/01/03 01:35:42;;;;;;;19.90;18.47;;;;;;;;;;4964410;29;20934;-86
2022/01/03 01:38:10;;;;;;;19.37;18.03;;;;;;;;;;4962574;29;20493;-86
2022/01/03 01:40:39;;;;;;;20.37;18.50;;;;;;;;;;4962477;29;20451;-85
2022/01/03 01:43:06;;;;;;;19.13;18.03;;;;;;;;;;4962983;29;20801;-87
2022/01/03 01:45:34;;;;;;;20.20;19.00;;;;;;;;;;4961609;29;20425;-86
2022/01/03 01:48:02;;;;;;;19.13;18.00;;;;;;;;;;4961806;29;20449;-86
2022/01/03 01:50:31;;;;;;;19.77;18.47;;;;;;;;;;4960867;29;20450;-86
2022/01/03 01:52:59;;;;;;;20.47;19.07;;;;;;;;;;4961247;29;20466;-87
2022/01/03 01:55:26;;;;;;;18.60;17.33;;;;;;;;;;4961341;29;20959;-87
2022/01/03 01:57:56;;;;;;;19.17;17.87;;;;;;;;;;4961657;29;20455;-86
2022/01/03 02:00:24;;;;;;;18.83;17.63;;;;;;;;;;4962145;28;20449;-86
2022/01/03 02:03:03;;;;;;;19.20;18.10;;;;;;;;;;4962432;29;20472;-86
2022/01/03 02:05:37;;;;;;;19.33;18.03;;;;;;;;;;4961782;28;20437;-85
2022/01/03 02:08:15;;;;;;;19.33;18.10;;;;;;;;;;4964225;29;20419;-86
2022/01/03 02:10:43;;;;;;;20.57;19.00;;;;;;;;;;4962101;29;20424;-87
2022/01/03 02:13:11;;;;;;;19.30;18.07;;;;;;;;;;4964275;28;20779;-87
2022/01/03 02:15:44;;;;;;;19.17;18.00;;;;;;;;;;4962005;29;20477;-86
2022/01/03 02:18:12;;;;;;;19.70;18.30;;;;;;;;;;4961382;29;20517;-85
2022/01/03 02:20:46;;;;;;;19.90;18.10;;;;;;;;;;4961352;29;20417;-86
2022/01/03 02:23:14;;;;;;;21.13;19.60;;;;;;;;;;4961832;28;20478;-86
2022/01/03 02:25:42;;;;;;;19.60;18.43;;;;;;;;;;4961830;29;20459;-86
2022/01/03 02:28:10;;;;;;;19.33;17.80;;;;;;;;;;4963583;29;20431;-86
2022/01/03 02:30:38;;;;;;;18.73;17.73;;;;;;;;;;4961586;28;20464;-87
2022/01/03 02:33:07;;;;;;;19.37;18.07;;;;;;;;;;4961388;29;20468;-86
2022/01/03 02:35:36;;;;;;;19.93;18.63;;;;;;;;;;4961056;29;20519;-86
2022/01/03 02:38:05;;;;;;;20.60;18.53;;;;;;;;;;4961740;29;20438;-86
2022/01/03 02:40:33;;;;;;;19.60;18.27;;;;;;;;;;4960121;29;20458;-85
2022/01/03 02:43:00;;;;;;;20.37;18.83;;;;;;;;;;4962022;29;20230;-87
2022/01/03 02:45:28;;;;;;;20.30;18.83;;;;;;;;;;4960797;29;20425;-86
2022/01/03 02:47:56;;;;;;;20.10;18.40;;;;;;;;;;4960277;29;20881;-86
2022/01/03 02:50:25;;;;;;;20.63;18.90;;;;;;;;;;4960312;29;20424;-86
2022/01/03 02:52:52;;;;;;;20.40;19.00;;;;;;;;;;4961189;29;20436;-87
2022/01/03 02:55:23;;;;;;;20.87;19.10;;;;;;;;;;4959765;29;20434;-86
2022/01/03 02:57:51;;;;;;;19.70;18.10;;;;;;;;;;4960116;29;20467;-86
2022/01/03 03:00:22;;;;;;;21.17;18.93;;;;;;;;;;4961053;29;20433;-86
2022/01/03 03:02:53;;;;;;;21.27;19.53;;;;;;;;;;4961474;29;20443;-86
2022/01/03 03:05:20;;;;;;;22.53;20.43;;;;;;;;;;4961559;29;20438;-85
2022/01/03 03:07:48;;;;;;;21.30;19.40;;;;;;;;;;4963010;29;20444;-86
2022/01/03 03:10:17;;;;;;;20.67;18.90;;;;;;;;;;4961235;28;20441;-86
2022/01/03 03:12:46;;;;;;;20.77;18.77;;;;;;;;;;4959331;29;20442;-86
2022/01/03 03:15:14;;;;;;;19.43;18.33;;;;;;;;;;4957206;29;20833;-85
2022/01/03 03:17:42;;;;;;;22.30;20.00;;;;;;;;;;4957768;29;20497;-86
2022/01/03 03:20:11;;;;;;;21.47;19.57;;;;;;;;;;4957171;29;20417;-86
2022/01/03 03:22:39;;;;;;;21.47;19.70;;;;;;;;;;4955794;29;20424;-86
2022/01/03 03:25:08;;;;;;;21.47;19.63;;;;;;;;;;4956677;29;20436;-86
2022/01/03 03:27:36;;;;;;;20.93;19.33;;;;;;;;;;4956887;29;20984;-86
2022/01/03 03:30:06;;;;;;;22.40;20.17;;;;;;;;;;4956248;28;20490;-86
2022/01/03 03:32:34;;;;;;;20.53;18.90;;;;;;;;;;4955245;29;20454;-86
2022/01/03 03:35:01;;;;;;;21.23;19.03;;;;;;;;;;4956281;28;20462;-86
2022/01/03 03:37:29;;;;;;;20.33;18.67;;;;;;;;;;4956315;29;20479;-87
2022/01/03 03:39:57;;;;;;;21.93;19.77;;;;;;;;;;4956419;29;20441;-86
2022/01/03 03:42:25;;;;;;;21.77;20.10;;;;;;;;;;4956279;29;20462;-86
2022/01/03 03:44:52;;;;;;;23.37;21.10;;;;;;;;;;4956447;29;20945;-86
2022/01/03 03:47:21;;;;;;;21.83;19.60;;;;;;;;;;4956182;29;20425;-86
2022/01/03 03:49:48;;;;;;;23.27;21.03;;;;;;;;;;4956177;29;20499;-86
2022/01/03 03:52:16;;;;;;;21.97;19.93;;;;;;;;;;4956599;29;20545;-87
2022/01/03 03:54:43;;;;;;;22.77;20.80;;;;;;;;;;4955789;29;20454;-86
2022/01/03 03:57:12;;;;;;;23.40;21.17;;;;;;;;;;4955876;29;20494;-86
2022/01/03 03:59:40;;;;;;;23.90;21.73;;;;;;;;;;4955947;29;20913;-86
2022/01/03 04:02:07;;;;;;;24.33;22.00;;;;;;;;;;4956263;29;20837;-88
2022/01/03 04:04:36;;;;;;;30.30;23.27;;;;;;;;;;4956059;29;20529;-86
2022/01/03 04:07:04;;;;;;;27.37;24.60;;;;;;;;;;4956149;29;20507;-86
2022/01/03 04:09:31;;;;;;;24.60;22.47;;;;;;;;;;4955936;29;20442;-86
2022/01/03 04:12:00;;;;;;;25.70;23.30;;;;;;;;;;4955989;29;20439;-86
2022/01/03 04:14:27;;;;;;;32.17;23.77;;;;;;;;;;4955915;29;20442;-87
2022/01/03 04:16:55;;;;;;;25.13;22.63;;;;;;;;;;4956010;29;20472;-87
2022/01/03 04:19:22;;;;;;;23.83;22.10;;;;;;;;;;4955906;29;20970;-86
2022/01/03 04:21:51;;;;;;;25.73;22.20;;;;;;;;;;4955834;29;20448;-86
2022/01/03 04:24:18;;;;;;;33.97;21.77;;;;;;;;;;4955565;29;20421;-86
2022/01/03 04:26:46;;;;;;;20.73;19.30;;;;;;;;;;4955790;28;20449;-86
2022/01/03 04:29:14;;;;;;;21.77;19.90;;;;;;;;;;4955982;29;20507;-87
2022/01/03 04:31:41;;;;;;;25.37;22.90;;;;;;;;;;4955623;29;20548;-87
2022/01/03 04:34:09;;;;;;;30.20;21.47;;;;;;;;;;4955959;29;20421;-87
2022/01/03 04:36:37;;;;;;;20.73;19.23;;;;;;;;;;4955518;29;20489;-87
2022/01/03 04:39:06;;;;;;;24.17;21.60;;;;;;;;;;4955769;29;20434;-86
2022/01/03 04:41:34;;;;;;;24.03;21.57;;;;;;;;;;4956018;29;20424;-87
2022/01/03 04:44:05;;;;;;;25.40;21.50;;;;;;;;;;4955630;29;20447;-87
2022/01/03 04:46:32;;;;;;;23.60;21.50;;;;;;;;;;4955537;29;20466;-87
2022/01/03 04:49:00;;;;;;;19.40;18.17;;;;;;;;;;4955720;29;20553;-86
2022/01/03 04:51:27;;;;;;;25.70;20.67;;;;;;;;;;4954387;29;20420;-87
2022/01/03 04:53:54;;;;;;;21.07;19.23;;;;;;;;;;4955308;29;20437;-87
2022/01/03 04:56:27;;;;;;;24.23;21.70;;;;;;;;;;4955654;29;20494;-86
2022/01/03 04:58:54;;;;;;;24.10;21.67;;;;;;;;;;4955153;29;20459;-86
2022/01/03 05:01:22;;;;;;;30.63;23.20;;;;;;;;;;4955948;29;20441;-87
2022/01/03 05:03:49;;;;;;;27.50;23.30;;;;;;;;;;4955700;29;20492;-86
2022/01/03 05:06:18;;;;;;;23.27;20.97;;;;;;;;;;4955275;29;20537;-87
2022/01/03 05:08:45;;;;;;;23.00;21.02;;;;;;;;;;4955620;29;20422;-87
2022/01/03 05:11:12;;;;;;;29.70;22.03;;;;;;;;;;4954703;29;20194;-86
2022/01/03 05:13:42;;;;;;;22.87;20.90;;;;;;;;;;4955126;29;20414;-87
2022/01/03 05:16:09;;;;;;;23.93;21.80;;;;;;;;;;4954991;29;21024;-86
2022/01/03 05:18:37;;;;;;;23.57;21.77;;;;;;;;;;4955363;29;20504;-86
2022/01/03 05:21:04;;;;;;;23.00;21.23;;;;;;;;;;4955435;29;20876;-87
2022/01/03 05:23:32;;;;;;;25.40;22.80;;;;;;;;;;4955207;28;20467;-86
2022/01/03 05:25:59;;;;;;;24.37;22.07;;;;;;;;;;4955440;29;20493;-86
2022/01/03 05:28:26;;;;;;;23.30;21.10;;;;;;;;;;4955176;29;20892;-87
2022/01/03 05:30:55;;;;;;;23.30;21.13;;;;;;;;;;4955024;28;20457;-87
2022/01/03 05:33:23;;;;;;;26.50;23.63;;;;;;;;;;4955272;29;20438;-85
2022/01/03 05:35:50;;;;;;;27.27;22.30;;;;;;;;;;4957559;28;20828;-87
2022/01/03 05:38:18;;;;;;;25.27;22.77;;;;;;;;;;4958928;29;20468;-87
2022/01/03 05:40:45;;;;;;;24.53;22.07;;;;;;;;;;4958528;29;20909;-87
2022/01/03 05:43:12;;;;;;;23.70;21.60;;;;;;;;;;4958480;29;20445;-87
2022/01/03 05:45:40;;;;;;;25.23;22.40;;;;;;;;;;4958746;29;20537;-87
2022/01/03 05:48:08;;;;;;;25.07;21.50;;;;;;;;;;4958248;29;20940;-87
2022/01/03 05:50:36;;;;;;;30.40;21.93;;;;;;;;;;4958286;29;20424;-87
2022/01/03 05:53:03;;;;;;;24.33;20.77;;;;;;;;;;4958663;29;20479;-87
2022/01/03 05:55:31;;;;;;;22.93;20.60;;;;;;;;;;4958599;28;20480;-87
2022/01/03 05:57:58;;;;;;;21.03;19.33;;;;;;;;;;4958230;29;20464;-86
2022/01/03 06:00:27;;;;;;;24.97;22.40;;;;;;;;;;4958354;29;20525;-87
2022/01/03 06:02:57;;;;;;;21.77;20.13;;;;;;;;;;4958312;29;20447;-87
2022/01/03 06:05:41;;;;;;;21.50;19.90;;;;;;;;;;4958662;29;20421;-87
2022/01/03 06:08:09;;;;;;;24.83;20.30;;;;;;;;;;4958198;29;20429;-87
2022/01/03 06:10:40;;;;;;;22.33;20.57;;;;;;;;;;4958401;29;20429;-86
2022/01/03 06:13:07;;;;;;;23.53;21.70;;;;;;;;;;4958152;29;20470;-87
2022/01/03 06:15:37;;;;;;;20.00;18.80;;;;;;;;;;4958440;29;20424;-88
2022/01/03 06:18:04;;;;;;;23.63;21.27;;;;;;;;;;4957830;29;20473;-88
2022/01/03 06:20:34;;;;;;;23.67;21.43;;;;;;;;;;4958173;29;20432;-86
2022/01/03 06:23:02;;;;;;;25.80;20.33;;;;;;;;;;4958157;29;20457;-85
2022/01/03 06:25:29;;;;;;;20.57;19.07;;;;;;;;;;4957566;29;20444;-86
2022/01/03 06:27:56;;;;;;;20.70;19.20;;;;;;;;;;4958300;29;20445;-87
2022/01/03 06:30:24;;;;;;;21.80;20.00;;;;;;;;;;4957857;28;20481;-89
2022/01/03 06:32:51;;;;;;;26.20;21.50;;;;;;;;;;4957726;29;20455;-86
2022/01/03 06:35:18;;;;;;;22.13;19.77;;;;;;;;;;4957646;29;20464;-86
2022/01/03 06:37:48;;;;;;;22.23;19.90;;;;;;;;;;4957489;29;20481;-87
2022/01/03 06:40:15;;;;;;;23.97;21.47;;;;;;;;;;4957767;29;20530;-87
2022/01/03 06:42:42;;;;;;;22.93;21.17;;;;;;;;;;4957573;29;20471;-85
2022/01/03 06:45:10;;;;;;;23.63;21.30;;;;;;;;;;4957596;28;20409;-87
2022/01/03 06:47:37;;;;;;;28.20;22.20;;;;;;;;;;4957566;29;20414;-86
2022/01/03 06:50:05;;;;;;;25.90;23.23;;;;;;;;;;4957674;29;20493;-87
2022/01/03 06:52:33;;;;;;;21.73;19.20;;;;;;;;;;4957175;29;20429;-87
2022/01/03 06:55:02;;;;;;;23.77;20.73;;;;;;;;;;4957475;29;20445;-87
2022/01/03 06:57:29;;;;;;;22.10;20.17;;;;;;;;;;4957462;29;20464;-86
2022/01/03 06:59:57;;;;;;;23.23;18.73;;;;;;;;;;4956022;29;20468;-87
2022/01/03 07:02:24;;;;;;;24.03;20.40;;;;;;;;;;4957186;29;20417;-86
2022/01/03 07:04:51;;;;;;;23.87;20.77;;;;;;;;;;4957196;29;20413;-86
2022/01/03 07:07:19;;;;;;;27.30;22.20;;;;;;;;;;4956731;29;20959;-86
2022/01/03 07:09:46;;;;;;;22.60;20.50;;;;;;;;;;4957217;29;20410;-87
2022/01/03 07:12:16;;;;;;;24.13;21.03;;;;;;;;;;4956226;29;20425;-86
2022/01/03 07:20:13;;;;;;;22.93;20.53;;;;;;;;;;4957040;29;20412;-87
2022/01/03 07:22:41;;;;;;;22.07;20.07;;;;;;;;;;4956669;28;20466;-87
2022/01/03 07:25:09;;;;;;;22.97;20.63;;;;;;;;;;4956974;29;20429;-87
2022/01/03 07:27:38;;;;;;;20.83;19.40;;;;;;;;;;4955584;29;20455;-89
2022/01/03 07:30:07;;;;;;;21.63;19.87;;;;;;;;;;4955477;29;20453;-91
2022/01/03 07:32:34;;;;;;;26.73;21.30;;;;;;;;;;4957093;29;20417;-90
2022/01/03 07:35:01;;;;;;;23.40;21.43;;;;;;;;;;4957039;29;20462;-91
2022/01/03 07:37:28;;;;;;;22.77;20.57;;;;;;;;;;4956609;29;20954;-90
2022/01/03 07:39:56;;;;;;;21.80;20.00;;;;;;;;;;4955578;29;20983;-91
2022/01/03 07:42:23;;;;;;;22.77;20.67;;;;;;;;;;4955603;29;20513;-90
2022/01/03 07:44:52;;;;;;;22.97;20.80;;;;;;;;;;4957160;29;20482;-89
2022/01/03 07:47:20;;;;;;;23.67;21.47;;;;;;;;;;4956520;29;20454;-88
2022/01/03 07:49:47;;;;;;;24.07;21.53;;;;;;;;;;4956450;29;20853;-88
2022/01/03 07:52:14;;;;;;;28.73;21.63;;;;;;;;;;4956469;29;20416;-90
2022/01/03 07:54:42;;;;;;;24.37;22.27;;;;;;;;;;4956863;29;20413;-90
2022/01/03 07:57:09;;;;;;;22.03;20.53;;;;;;;;;;4955683;28;21006;-89
2022/01/03 07:59:36;;;;;;;23.73;21.27;;;;;;;;;;4956139;29;20443;-90
2022/01/03 08:02:05;;;;;;;24.50;22.10;;;;;;;;;;4956150;29;20471;-90
2022/01/03 08:04:33;;;;;;;24.50;21.50;;;;;;;;;;4956692;29;20442;-91
2022/01/03 08:07:00;;;;;;;23.23;20.90;;;;;;;;;;4956050;29;20252;-91
2022/01/03 08:09:27;;;;;;;22.90;21.17;;;;;;;;;;4956215;29;20210;-91
2022/01/03 08:11:55;;;;;;;21.90;20.00;;;;;;;;;;4956908;29;20473;-89
2022/01/03 08:14:22;;;;;;;24.97;22.13;;;;;;;;;;4956162;29;20444;-88
2022/01/03 08:16:50;;;;;;;24.80;22.80;;;;;;;;;;4956209;29;20418;-88
2022/01/03 08:19:19;;;;;;;23.33;20.80;;;;;;;;;;4956360;29;20452;-88
2022/01/03 08:21:46;;;;;;;21.93;19.63;;;;;;;;;;4956472;29;20427;-88
2022/01/03 08:24:14;;;;;;;22.20;20.00;;;;;;;;;;4956000;29;20920;-88
2022/01/03 08:26:41;;;;;;;23.27;20.97;;;;;;;;;;4956238;29;20743;-88
2022/01/03 08:29:09;;;;;;;22.50;20.40;;;;;;;;;;4955932;29;20448;-89
2022/01/03 08:31:37;;;;;;;23.87;21.90;;;;;;;;;;4955774;28;20461;-95
2022/01/03 08:34:05;;;;;;;23.40;21.00;;;;;;;;;;4956628;29;20994;-95
2022/01/03 08:36:34;;;;;;;24.07;21.87;;;;;;;;;;4955289;29;20435;-87
2022/01/03 08:39:01;;;;;;;23.43;21.17;;;;;;;;;;4955507;29;20490;-88
2022/01/03 08:41:28;;;;;;;23.37;21.10;;;;;;;;;;4955871;29;20447;-87
2022/01/03 08:43:56;;;;;;;22.00;20.10;;;;;;;;;;4965231;28;20482;-86
2022/01/03 08:46:24;;;;;;;21.93;19.73;;;;;;;;;;4975010;28;20434;-86
2022/01/03 08:48:51;;;;;;;21.47;19.90;;;;;;;;;;4974908;28;20445;-87
2022/01/03 08:51:18;;;;;;;23.53;21.27;;;;;;;;;;4975058;28;20453;-87
2022/01/03 08:53:47;;;;;;;23.20;21.20;;;;;;;;;;4975250;28;20465;-87
2022/01/03 08:56:15;;;;;;;23.67;21.60;;;;;;;;;;4974961;28;20850;-89
2022/01/03 08:58:42;;;;;;;25.17;23.03;;;;;;;;;;4974947;28;20969;-87
2022/01/03 09:01:09;;;;;;;23.23;21.70;;;;;;;;;;4974866;28;21017;-86
2022/01/03 09:03:37;;;;;;;22.40;20.90;;;;;;;;;;4974317;28;20764;-87
2022/01/03 09:06:04;;;;;;;22.60;20.47;;;;;;;;;;4974448;28;20428;-88
2022/01/03 09:08:32;;;;;;;23.37;21.13;;;;;;;;;;4974856;28;20818;-88
2022/01/03 09:11:01;;;;;;;24.67;22.23;;;;;;;;;;4978674;28;20474;-87
2022/01/03 09:13:29;;;;;;;23.60;21.87;;;;;;;;;;4978580;28;20451;-88
2022/01/03 09:15:56;;;;;;;22.93;21.10;;;;;;;;;;4978934;28;20415;-91
2022/01/03 09:18:26;;;;;;;25.03;23.00;;;;;;;;;;4978202;28;21052;-87
2022/01/03 09:20:53;;;;;;;28.27;22.30;;;;;;;;;;4978513;28;20445;-87
2022/01/03 09:23:25;;;;;;;24.10;21.70;;;;;;;;;;4978456;28;20457;-87
2022/01/03 09:28:52;;;;;;;23.10;21.20;;;;;;;;;;4978235;28;20472;-87
2022/01/03 09:31:21;;;;;;;21.80;20.30;;;;;;;;;;4978370;28;20531;-89
2022/01/03 09:33:49;;;;;;;28.53;21.97;;;;;;;;;;4978157;28;20802;-89
2022/01/03 09:36:16;;;;;;;23.70;21.57;;;;;;;;;;4977205;28;20508;-89
2022/01/03 09:38:44;;;;;;;22.30;20.80;;;;;;;;;;4978077;28;20837;-90
2022/01/03 09:41:12;;;;;;;24.83;22.93;;;;;;;;;;4978708;28;20417;-91
2022/01/03 09:43:48;;;;;;;22.63;20.77;;;;;;;;;;4977983;28;20454;-91
2022/01/03 09:46:17;;;;;;;23.20;21.60;;;;;;;;;;4978428;28;20439;-93
2022/01/03 09:48:51;;;;;;;24.90;22.87;;;;;;;;;;4977892;28;20467;-87
2022/01/03 09:51:18;;;;;;;28.30;22.67;;;;;;;;;;4977679;28;20435;-88
2022/01/03 09:53:46;;;;;;;25.10;22.63;;;;;;;;;;4977865;28;20508;-86
2022/01/03 09:56:13;;;;;;;22.10;20.47;;;;;;;;;;4977283;28;20489;-85
2022/01/03 09:58:42;;;;;;;24.20;22.20;;;;;;;;;;4976912;28;20817;-85
2022/01/03 10:01:10;;;;;;;24.90;22.20;;;;;;;;;;4977204;28;20484;-84
2022/01/03 10:03:37;;;;;;;24.53;22.40;;;;;;;;;;4977267;28;20896;-86
2022/01/03 10:06:05;;;;;;;22.37;20.50;;;;;;;;;;4977059;28;20424;-85
2022/01/03 10:08:32;;;;;;;22.17;20.40;;;;;;;;;;4977415;28;20466;-86
2022/01/03 10:10:59;;;;;;;23.90;21.60;;;;;;;;;;4977079;28;20452;-86
2022/01/03 10:13:27;;;;;;;22.77;20.83;;;;;;;;;;4977412;28;20432;-85
2022/01/03 10:15:56;;;;;;;22.60;19.37;;;;;;;;;;4975860;28;20937;-86
2022/01/03 10:18:23;;;;;;;23.63;21.60;;;;;;;;;;4976933;28;20529;-85
2022/01/03 10:20:50;;;;;;;23.13;21.23;;;;;;;;;;4976331;28;20446;-86
2022/01/03 10:23:18;;;;;;;22.00;20.47;;;;;;;;;;4975716;28;20425;-86
2022/01/03 10:25:47;;;;;;;26.53;24.13;;;;;;;;;;4977255;28;20459;-86
2022/01/03 10:28:23;;;;;;;23.80;21.60;;;;;;;;;;4975936;28;20557;-87
2022/01/03 10:30:50;;;;;;;22.20;20.30;;;;;;;;;;4977108;28;20491;-87
2022/01/03 10:33:21;;;;;;;22.33;20.73;;;;;;;;;;4977423;28;20424;-89
2022/01/03 10:35:49;;;;;;;23.97;21.77;;;;;;;;;;4977472;28;20443;-88
2022/01/03 10:38:32;;;;;;;23.90;22.00;;;;;;;;;;4976872;28;20996;-89
2022/01/03 10:41:11;;;;;;;22.30;20.70;;;;;;;;;;4977259;28;20472;-86
2022/01/03 10:43:38;;;;;;;22.07;20.23;;;;;;;;;;4976974;28;20543;-85
2022/01/03 10:46:17;;;;;;;22.03;20.33;;;;;;;;;;4976984;28;20471;-87
2022/01/03 10:48:47;;;;;;;21.93;20.17;;;;;;;;;;4977391;28;20922;-89
2022/01/03 10:51:21;;;;;;;22.63;20.63;;;;;;;;;;4974652;28;20521;-89
2022/01/03 10:53:50;;;;;;;20.80;19.50;;;;;;;;;;4976568;28;20438;-89
2022/01/03 10:56:23;;;;;;;20.17;18.80;;;;;;;;;;4977016;28;20504;-89
2022/01/03 10:58:51;;;;;;;23.10;21.00;;;;;;;;;;4975070;28;20493;-88
2022/01/03 11:01:21;;;;;;;22.80;20.80;;;;;;;;;;4975062;28;20496;-89
2022/01/03 11:03:51;;;;;;;22.17;19.90;;;;;;;;;;4976851;28;20913;-88
2022/01/03 11:06:47;;;;;;;24.20;21.97;;;;;;;;;;4976530;28;20487;-88
2022/01/03 11:12:17;;;;;;;24.93;21.03;;;;;;;;;;4976582;28;20435;-86
2022/01/03 11:14:45;;;;;;;24.13;21.73;;;;;;;;;;4976631;28;20491;-88
2022/01/03 11:17:25;;;;;;;24.00;21.63;;;;;;;;;;4976531;28;20439;-87
2022/01/03 11:19:56;;;;;;;26.60;24.47;;;;;;;;;;4976099;28;20476;-87
2022/01/03 11:22:39;;;;;;;22.20;20.00;;;;;;;;;;4976478;28;20539;-89
2022/01/03 11:25:06;;;;;;;28.40;23.97;;;;;;;;;;4976406;28;20421;-93
2022/01/03 11:27:38;;;;;;;20.73;19.47;;;;;;;;;;4976537;28;20491;-92
2022/01/03 11:30:05;;;;;;;27.70;23.90;;;;;;;;;;4978113;28;20489;-88
2022/01/03 11:32:34;;;;;;;23.03;20.83;;;;;;;;;;4976402;28;20424;-90
2022/01/03 11:35:03;;;;;;;27.20;21.57;;;;;;;;;;4976112;28;20416;-88
2022/01/03 11:37:32;;;;;;;25.30;22.90;;;;;;;;;;4975913;28;20415;-89
2022/01/03 11:40:01;;;;;;;26.27;22.60;;;;;;;;;;4975751;28;21046;-91
2022/01/03 11:42:28;;;;;;;23.83;22.20;;;;;;;;;;4976425;28;20453;-90
2022/01/03 11:44:56;;;;;;;24.23;22.10;;;;;;;;;;4975736;28;20772;-92
2022/01/03 11:47:23;;;;;;;24.60;22.50;;;;;;;;;;4976657;28;20863;-88
2022/01/03 11:49:51;;;;;;;25.47;22.60;;;;;;;;;;4975710;28;20483;-90
2022/01/03 11:52:21;;;;;;;25.13;23.20;;;;;;;;;;4976350;28;20497;-89
2022/01/03 11:54:48;;;;;;;23.83;21.53;;;;;;;;;;4975556;28;20484;-87
2022/01/03 11:57:22;;;;;;;24.37;21.93;;;;;;;;;;4976009;28;20874;-87
2022/01/03 12:05:41;;;;;;;24.50;22.53;;;;;;;;;;4980181;28;20510;-87
2022/01/03 12:08:21;;;;;;;25.07;22.77;;;;;;;;;;4994878;28;20433;-89
2022/01/03 12:10:48;;;;;;;25.17;22.80;;;;;;;;;;4995373;28;20441;-88
2022/01/03 12:13:16;;;;;;;23.07;21.37;;;;;;;;;;4977752;28;20861;-89
2022/01/03 12:15:43;;;;;;;24.93;22.50;;;;;;;;;;4995072;28;20486;-89
2022/01/03 12:18:31;;;;;;;23.03;21.20;;;;;;;;;;4978511;28;20766;-91
2022/01/03 12:20:59;;;;;;;25.30;20.83;;;;;;;;;;4990414;28;20447;-89
2022/01/03 12:23:41;;;;;;;23.63;21.63;;;;;;;;;;4994746;28;20462;-89
2022/01/03 12:26:10;;;;;;;25.30;21.80;;;;;;;;;;4994807;28;20490;-91
2022/01/03 12:28:55;;;;;;;24.97;22.57;;;;;;;;;;4994838;28;20434;-89
2022/01/03 12:31:22;;;;;;;24.20;21.63;;;;;;;;;;4984764;28;20534;-89
2022/01/03 12:34:04;;;;;;;22.53;20.53;;;;;;;;;;4994586;28;20478;-89
2022/01/03 12:36:32;;;;;;;22.37;20.97;;;;;;;;;;4993931;28;20460;-90
2022/01/03 12:39:13;;;;;;;26.77;23.00;;;;;;;;;;4994735;28;20564;-90
2022/01/03 12:41:42;;;;;;;23.23;21.70;;;;;;;;;;4993419;28;20484;-90
2022/01/03 12:44:11;;;;;;;29.20;23.30;;;;;;;;;;4994338;28;20419;-89
2022/01/03 12:46:38;;;;;;;23.87;21.90;;;;;;;;;;4995225;28;20450;-85
2022/01/03 12:49:24;;;;;;;28.27;24.30;;;;;;;;;;4994807;28;20442;-90
2022/01/03 12:51:51;;;;;;;22.13;20.33;;;;;;;;;;4994689;28;20446;-92
2022/01/03 12:54:33;;;;;;;27.67;24.70;;;;;;;;;;4976907;28;20449;-92
2022/01/03 12:57:14;;;;;;;23.50;21.80;;;;;;;;;;4993413;28;20844;-89
2022/01/03 12:59:43;;;;;;;22.83;20.97;;;;;;;;;;4993951;28;20459;-89
2022/01/03 13:02:29;;;;;;;24.07;22.23;;;;;;;;;;4994063;28;20573;-90
2022/01/03 13:04:57;;;;;;;23.70;21.30;;;;;;;;;;4994308;28;20480;-90
2022/01/03 13:07:24;;;;;;;22.03;20.23;;;;;;;;;;4961165;28;20461;-88
2022/01/03 13:09:53;;;;;;;21.70;19.80;;;;;;;;;;4994342;28;21002;-88
2022/01/03 13:12:24;;;;;;;25.47;22.87;;;;;;;;;;4977027;28;20515;-84
2022/01/03 13:15:02;;;;;;;24.03;21.57;;;;;;;;;;4993680;28;20519;-85
2022/01/03 13:17:31;;;;;;;25.97;21.97;;;;;;;;;;4993568;28;20419;-84
2022/01/03 13:20:09;;;;;;;21.97;20.00;;;;;;;;;;4975981;28;20862;-84
2022/01/03 13:22:37;;;;;;;25.63;23.03;;;;;;;;;;4993465;28;20954;-85
2022/01/03 13:25:06;;;;;;;23.53;21.37;;;;;;;;;;4976437;28;20411;-84
2022/01/03 13:27:36;;;;;;;23.20;21.10;;;;;;;;;;4993310;28;20441;-84
2022/01/03 13:30:06;;;;;;;23.83;21.80;;;;;;;;;;4993513;28;20553;-87
2022/01/03 13:32:35;;;;;;;22.90;20.60;;;;;;;;;;4994114;28;20939;-89
2022/01/03 13:35:04;;;;;;;21.20;19.43;;;;;;;;;;4994266;28;20412;-93
2022/01/03 13:37:32;;;;;;;22.70;20.33;;;;;;;;;;4994217;28;20432;-96
2022/01/03 13:40:00;;;;;;;23.30;20.83;;;;;;;;;;4994244;28;21022;-94
2022/01/03 13:42:36;;;;;;;22.77;20.33;;;;;;;;;;4994336;28;20469;-94
2022/01/03 13:49:11;;;;;;;20.90;19.20;;;;;;;;;;4994760;28;20437;-95
2022/01/03 13:50:51;;;;;;;22.93;21.13;;;;;;;;;;4995240;28;20496;-96
2022/01/03 13:53:19;;;;;;;23.50;21.30;;;;;;;;;;4977281;28;20431;-95
2022/01/03 13:55:52;;;;;;;22.73;20.70;;;;;;;;;;4997009;28;20507;-95
2022/01/03 13:58:20;;;;;;;22.97;20.83;;;;;;;;;;4981409;28;20846;-95
2022/01/03 14:00:51;;;;;;;22.20;20.50;;;;;;;;;;4998072;28;21011;-95
2022/01/03 14:03:21;;;;;;;22.20;20.60;;;;;;;;;;4999276;28;20471;-95
2022/01/03 14:05:49;;;;;;;20.40;19.00;;;;;;;;;;5000766;28;20427;-94
2022/01/03 14:08:19;;;;;;;20.80;19.40;;;;;;;;;;4999910;28;20586;-96
2022/01/03 14:10:47;;;;;;;22.90;21.20;;;;;;;;;;4999361;28;20460;-95
2022/01/03 14:13:15;;;;;;;22.20;20.57;;;;;;;;;;4997990;28;20795;-95
2022/01/03 14:15:58;;;;;;;22.70;20.63;;;;;;;;;;4998277;28;20416;-96
2022/01/03 14:18:33;;;;;;;22.50;20.90;;;;;;;;;;4999047;28;20424;-96
2022/01/03 14:21:06;;;;;;;22.27;20.67;;;;;;;;;;5000550;28;20447;-96
2022/01/03 14:23:33;;;;;;;24.60;22.70;;;;;;;;;;4999067;28;20417;-96
2022/01/03 14:26:11;;;;;;;22.93;20.83;;;;;;;;;;4998141;28;20431;-95
2022/01/03 14:28:40;;;;;;;23.13;21.33;;;;;;;;;;4998069;28;20452;-95
2022/01/03 14:31:11;;;;;;;23.63;21.20;;;;;;;;;;4996902;28;20537;-95
2022/01/03 14:33:40;;;;;;;23.10;20.93;;;;;;;;;;4997000;28;20460;-96
2022/01/03 14:36:14;;;;;;;24.20;21.90;;;;;;;;;;4997397;28;20792;-95
2022/01/03 14:38:43;;;;;;;24.13;22.03;;;;;;;;;;4997135;28;20988;-96
2022/01/03 14:41:24;;;;;;;23.93;21.37;;;;;;;;;;4980357;28;20430;-96
2022/01/03 14:43:55;;;;;;;22.40;20.50;;;;;;;;;;4997467;28;20502;-96
2022/01/03 14:46:30;;;;;;;23.73;21.70;;;;;;;;;;4997190;28;20467;-96
2022/01/03 14:48:59;;;;;;;22.43;20.47;;;;;;;;;;4997212;28;20510;-96
2022/01/03 14:51:35;;;;;;;22.67;20.30;;;;;;;;;;4981740;28;20461;-96